sensor_id;sensor_type;location;lat;lon;timestamp;temperature;humidity
33841;DHT22;20142;28.494;-16.312;2023-04-24T00:00:49;17.10;80.00
33841;DHT22;20142;28.494;-16.312;2023-04-24T00:05:52;17.10;79.90
33841;DHT22;20142;28.494;-16.312;2023-04-24T00:10:53;17.20;80.10
33841;DHT22;20142;28.494;-16.312;2023-04-24T00:15:55;17.20;79.90
33841;DHT22;20142;28.494;-16.312;2023-04-24T00:20:57;17.20;80.00
33841;DHT22;20142;28.494;-16.312;2023-04-24T00:25:59;17.10;80.00
33841;DHT22;20142;28.494;-16.312;2023-04-24T00:31:01;16.90;79.90
33841;DHT22;20142;28.494;-16.312;2023-04-24T00:36:03;16.90;80.40
33841;DHT22;20142;28.494;-16.312;2023-04-24T00:41:05;16.90;80.20
33841;DHT22;20142;28.494;-16.312;2023-04-24T00:46:07;16.70;80.20
33841;DHT22;20142;28.494;-16.312;2023-04-24T00:51:09;16.80;80.60
33841;DHT22;20142;28.494;-16.312;2023-04-24T00:56:11;16.80;80.10
33841;DHT22;20142;28.494;-16.312;2023-04-24T01:01:12;16.70;80.50
33841;DHT22;20142;28.494;-16.312;2023-04-24T01:06:15;16.80;80.20
33841;DHT22;20142;28.494;-16.312;2023-04-24T01:11:17;16.60;80.60
33841;DHT22;20142;28.494;-16.312;2023-04-24T01:16:19;16.70;80.60
33841;DHT22;20142;28.494;-16.312;2023-04-24T01:21:26;16.80;80.80
33841;DHT22;20142;28.494;-16.312;2023-04-24T01:26:31;16.70;81.10
33841;DHT22;20142;28.494;-16.312;2023-04-24T01:31:33;16.70;80.50
33841;DHT22;20142;28.494;-16.312;2023-04-24T01:36:35;16.80;80.70
33841;DHT22;20142;28.494;-16.312;2023-04-24T01:41:37;16.90;80.40
33841;DHT22;20142;28.494;-16.312;2023-04-24T01:46:39;16.70;80.50
33841;DHT22;20142;28.494;-16.312;2023-04-24T01:51:41;16.70;81.10
33841;DHT22;20142;28.494;-16.312;2023-04-24T01:56:43;16.60;80.70
33841;DHT22;20142;28.494;-16.312;2023-04-24T02:01:45;16.60;81.10
33841;DHT22;20142;28.494;-16.312;2023-04-24T02:06:46;16.60;81.10
33841;DHT22;20142;28.494;-16.312;2023-04-24T02:11:48;16.60;81.30
33841;DHT22;20142;28.494;-16.312;2023-04-24T02:16:50;16.50;81.00
33841;DHT22;20142;28.494;-16.312;2023-04-24T02:21:51;16.40;81.30
33841;DHT22;20142;28.494;-16.312;2023-04-24T02:26:53;16.40;81.20
33841;DHT22;20142;28.494;-16.312;2023-04-24T02:31:55;16.40;81.60
33841;DHT22;20142;28.494;-16.312;2023-04-24T02:36:56;16.50;81.70
33841;DHT22;20142;28.494;-16.312;2023-04-24T02:41:58;16.50;81.60
33841;DHT22;20142;28.494;-16.312;2023-04-24T02:46:59;16.30;81.60
33841;DHT22;20142;28.494;-16.312;2023-04-24T02:52:01;16.30;81.80
33841;DHT22;20142;28.494;-16.312;2023-04-24T02:57:03;16.20;81.90
33841;DHT22;20142;28.494;-16.312;2023-04-24T03:02:05;16.20;82.10
33841;DHT22;20142;28.494;-16.312;2023-04-24T03:07:06;16.20;82.50
33841;DHT22;20142;28.494;-16.312;2023-04-24T03:12:08;16.10;82.60
33841;DHT22;20142;28.494;-16.312;2023-04-24T03:17:10;16.20;82.60
33841;DHT22;20142;28.494;-16.312;2023-04-24T03:22:11;16.10;82.60
33841;DHT22;20142;28.494;-16.312;2023-04-24T03:27:13;16.10;82.70
33841;DHT22;20142;28.494;-16.312;2023-04-24T03:32:15;16.10;82.90
33841;DHT22;20142;28.494;-16.312;2023-04-24T03:37:17;16.00;83.10
33841;DHT22;20142;28.494;-16.312;2023-04-24T03:42:18;16.20;83.20
33841;DHT22;20142;28.494;-16.312;2023-04-24T03:47:20;16.10;83.30
33841;DHT22;20142;28.494;-16.312;2023-04-24T03:52:22;16.10;83.20
33841;DHT22;20142;28.494;-16.312;2023-04-24T03:57:23;16.10;83.20
33841;DHT22;20142;28.494;-16.312;2023-04-24T04:02:26;16.10;82.90
33841;DHT22;20142;28.494;-16.312;2023-04-24T04:07:27;16.10;83.00
33841;DHT22;20142;28.494;-16.312;2023-04-24T04:12:30;16.10;83.30
33841;DHT22;20142;28.494;-16.312;2023-04-24T04:17:32;16.10;83.30
33841;DHT22;20142;28.494;-16.312;2023-04-24T04:22:34;16.10;83.10
33841;DHT22;20142;28.494;-16.312;2023-04-24T04:27:36;16.00;82.90
33841;DHT22;20142;28.494;-16.312;2023-04-24T04:32:37;16.10;83.20
33841;DHT22;20142;28.494;-16.312;2023-04-24T04:37:39;16.10;83.00
33841;DHT22;20142;28.494;-16.312;2023-04-24T04:42:41;16.10;83.20
33841;DHT22;20142;28.494;-16.312;2023-04-24T04:47:43;16.10;83.20
33841;DHT22;20142;28.494;-16.312;2023-04-24T04:52:45;16.00;83.00
33841;DHT22;20142;28.494;-16.312;2023-04-24T04:57:47;16.00;83.20
33841;DHT22;20142;28.494;-16.312;2023-04-24T05:02:49;16.00;83.10
33841;DHT22;20142;28.494;-16.312;2023-04-24T05:07:50;16.00;83.20
33841;DHT22;20142;28.494;-16.312;2023-04-24T05:12:52;16.00;83.10
33841;DHT22;20142;28.494;-16.312;2023-04-24T05:17:54;16.10;83.40
33841;DHT22;20142;28.494;-16.312;2023-04-24T05:22:56;16.10;82.80
33841;DHT22;20142;28.494;-16.312;2023-04-24T05:27:57;16.00;82.90
33841;DHT22;20142;28.494;-16.312;2023-04-24T05:32:59;16.00;83.20
33841;DHT22;20142;28.494;-16.312;2023-04-24T05:38:01;16.00;83.30
33841;DHT22;20142;28.494;-16.312;2023-04-24T05:43:02;16.00;82.90
33841;DHT22;20142;28.494;-16.312;2023-04-24T05:48:04;15.90;83.10
33841;DHT22;20142;28.494;-16.312;2023-04-24T05:53:06;16.00;83.30
33841;DHT22;20142;28.494;-16.312;2023-04-24T05:58:08;16.10;83.10
33841;DHT22;20142;28.494;-16.312;2023-04-24T06:03:10;16.10;82.50
33841;DHT22;20142;28.494;-16.312;2023-04-24T06:08:11;16.10;82.90
33841;DHT22;20142;28.494;-16.312;2023-04-24T06:13:13;16.00;82.60
33841;DHT22;20142;28.494;-16.312;2023-04-24T06:18:15;16.00;83.00
33841;DHT22;20142;28.494;-16.312;2023-04-24T06:23:17;15.90;82.90
33841;DHT22;20142;28.494;-16.312;2023-04-24T06:28:18;15.80;83.30
33841;DHT22;20142;28.494;-16.312;2023-04-24T06:33:20;15.80;83.30
33841;DHT22;20142;28.494;-16.312;2023-04-24T06:38:22;15.90;83.40
33841;DHT22;20142;28.494;-16.312;2023-04-24T06:43:23;15.90;83.10
33841;DHT22;20142;28.494;-16.312;2023-04-24T06:48:25;16.10;83.00
33841;DHT22;20142;28.494;-16.312;2023-04-24T06:53:27;16.10;82.60
33841;DHT22;20142;28.494;-16.312;2023-04-24T06:58:30;16.00;82.90
33841;DHT22;20142;28.494;-16.312;2023-04-24T07:03:32;16.10;82.90
33841;DHT22;20142;28.494;-16.312;2023-04-24T07:08:34;16.20;82.80
33841;DHT22;20142;28.494;-16.312;2023-04-24T07:13:36;16.30;83.00
33841;DHT22;20142;28.494;-16.312;2023-04-24T07:18:42;16.30;82.60
33841;DHT22;20142;28.494;-16.312;2023-04-24T07:23:44;16.40;82.30
33841;DHT22;20142;28.494;-16.312;2023-04-24T07:28:46;16.50;82.90
33841;DHT22;20142;28.494;-16.312;2023-04-24T07:33:48;16.60;82.40
33841;DHT22;20142;28.494;-16.312;2023-04-24T07:38:50;16.70;82.30
33841;DHT22;20142;28.494;-16.312;2023-04-24T07:43:51;16.80;82.10
33841;DHT22;20142;28.494;-16.312;2023-04-24T07:48:54;16.90;82.40
33841;DHT22;20142;28.494;-16.312;2023-04-24T07:53:56;17.20;81.60
33841;DHT22;20142;28.494;-16.312;2023-04-24T07:58:58;17.30;81.90
33841;DHT22;20142;28.494;-16.312;2023-04-24T08:04:00;17.50;81.50
33841;DHT22;20142;28.494;-16.312;2023-04-24T08:09:01;17.60;81.00
33841;DHT22;20142;28.494;-16.312;2023-04-24T08:14:04;17.90;80.90
33841;DHT22;20142;28.494;-16.312;2023-04-24T08:19:06;18.00;80.30
33841;DHT22;20142;28.494;-16.312;2023-04-24T08:24:07;18.20;79.90
33841;DHT22;20142;28.494;-16.312;2023-04-24T08:29:09;18.40;79.80
33841;DHT22;20142;28.494;-16.312;2023-04-24T08:34:11;18.60;79.30
33841;DHT22;20142;28.494;-16.312;2023-04-24T08:39:13;18.80;78.70
33841;DHT22;20142;28.494;-16.312;2023-04-24T08:44:16;19.00;78.50
33841;DHT22;20142;28.494;-16.312;2023-04-24T08:49:19;19.10;77.90
33841;DHT22;20142;28.494;-16.312;2023-04-24T08:54:21;19.30;77.90
33841;DHT22;20142;28.494;-16.312;2023-04-24T08:59:23;19.40;77.40
33841;DHT22;20142;28.494;-16.312;2023-04-24T09:04:25;19.60;77.20
33841;DHT22;20142;28.494;-16.312;2023-04-24T09:09:30;19.70;76.50
33841;DHT22;20142;28.494;-16.312;2023-04-24T09:14:34;19.90;76.90
33841;DHT22;20142;28.494;-16.312;2023-04-24T09:19:37;20.10;76.50
33841;DHT22;20142;28.494;-16.312;2023-04-24T09:24:39;20.10;75.60
33841;DHT22;20142;28.494;-16.312;2023-04-24T09:29:56;20.30;75.60
33841;DHT22;20142;28.494;-16.312;2023-04-24T09:35:12;20.50;75.10
33841;DHT22;20142;28.494;-16.312;2023-04-24T09:40:20;20.60;75.60
33841;DHT22;20142;28.494;-16.312;2023-04-24T09:45:43;20.90;74.00
33841;DHT22;20142;28.494;-16.312;2023-04-24T09:50:48;21.00;73.70
33841;DHT22;20142;28.494;-16.312;2023-04-24T09:55:53;21.00;73.30
33841;DHT22;20142;28.494;-16.312;2023-04-24T10:00:56;21.10;72.70
33841;DHT22;20142;28.494;-16.312;2023-04-24T10:06:02;21.20;72.20
33841;DHT22;20142;28.494;-16.312;2023-04-24T10:11:09;21.40;72.70
33841;DHT22;20142;28.494;-16.312;2023-04-24T10:16:12;21.60;71.60
33841;DHT22;20142;28.494;-16.312;2023-04-24T10:21:17;21.80;72.60
33841;DHT22;20142;28.494;-16.312;2023-04-24T10:26:19;22.20;71.90
33841;DHT22;20142;28.494;-16.312;2023-04-24T10:31:22;22.40;70.60
33841;DHT22;20142;28.494;-16.312;2023-04-24T10:36:25;22.30;71.00
33841;DHT22;20142;28.494;-16.312;2023-04-24T10:41:30;22.50;69.80
33841;DHT22;20142;28.494;-16.312;2023-04-24T10:46:32;22.60;70.20
33841;DHT22;20142;28.494;-16.312;2023-04-24T10:51:51;22.90;69.50
33841;DHT22;20142;28.494;-16.312;2023-04-24T11:02:36;23.40;68.60
33841;DHT22;20142;28.494;-16.312;2023-04-24T11:13:16;23.40;68.40
33841;DHT22;20142;28.494;-16.312;2023-04-24T11:18:18;23.50;68.40
33841;DHT22;20142;28.494;-16.312;2023-04-24T11:23:20;23.80;67.50
33841;DHT22;20142;28.494;-16.312;2023-04-24T11:28:24;23.90;66.90
33841;DHT22;20142;28.494;-16.312;2023-04-24T11:33:26;23.90;66.90
33841;DHT22;20142;28.494;-16.312;2023-04-24T11:38:28;24.10;67.00
33841;DHT22;20142;28.494;-16.312;2023-04-24T11:43:30;24.10;67.10
33841;DHT22;20142;28.494;-16.312;2023-04-24T11:48:34;23.70;67.00
33841;DHT22;20142;28.494;-16.312;2023-04-24T11:53:41;23.60;68.20
33841;DHT22;20142;28.494;-16.312;2023-04-24T11:58:42;23.30;68.80
33841;DHT22;20142;28.494;-16.312;2023-04-24T12:03:48;23.40;68.80
33841;DHT22;20142;28.494;-16.312;2023-04-24T12:08:52;23.40;68.60
33841;DHT22;20142;28.494;-16.312;2023-04-24T12:13:56;23.20;68.80
33841;DHT22;20142;28.494;-16.312;2023-04-24T12:18:58;23.20;69.20
33841;DHT22;20142;28.494;-16.312;2023-04-24T12:23:59;23.20;69.20
33841;DHT22;20142;28.494;-16.312;2023-04-24T12:29:02;23.30;69.20
33841;DHT22;20142;28.494;-16.312;2023-04-24T12:34:20;23.10;69.00
33841;DHT22;20142;28.494;-16.312;2023-04-24T12:39:22;23.40;69.40
33841;DHT22;20142;28.494;-16.312;2023-04-24T12:44:31;23.40;69.40
33841;DHT22;20142;28.494;-16.312;2023-04-24T12:49:35;23.50;68.70
33841;DHT22;20142;28.494;-16.312;2023-04-24T12:54:37;23.20;68.10
33841;DHT22;20142;28.494;-16.312;2023-04-24T12:59:38;23.10;68.90
33841;DHT22;20142;28.494;-16.312;2023-04-24T13:04:40;23.10;68.30
33841;DHT22;20142;28.494;-16.312;2023-04-24T13:09:43;23.20;68.60
33841;DHT22;20142;28.494;-16.312;2023-04-24T13:14:45;23.00;68.90
33841;DHT22;20142;28.494;-16.312;2023-04-24T13:19:49;23.00;68.90
33841;DHT22;20142;28.494;-16.312;2023-04-24T13:24:52;22.90;69.00
33841;DHT22;20142;28.494;-16.312;2023-04-24T13:29:54;23.00;69.90
33841;DHT22;20142;28.494;-16.312;2023-04-24T13:34:56;23.00;69.70
33841;DHT22;20142;28.494;-16.312;2023-04-24T13:39:58;23.30;70.00
33841;DHT22;20142;28.494;-16.312;2023-04-24T13:45:00;23.20;69.60
33841;DHT22;20142;28.494;-16.312;2023-04-24T13:50:01;23.00;70.50
33841;DHT22;20142;28.494;-16.312;2023-04-24T13:55:04;23.00;70.60
33841;DHT22;20142;28.494;-16.312;2023-04-24T14:00:07;22.90;70.10
33841;DHT22;20142;28.494;-16.312;2023-04-24T14:05:12;23.00;70.90
33841;DHT22;20142;28.494;-16.312;2023-04-24T14:10:16;23.30;70.70
33841;DHT22;20142;28.494;-16.312;2023-04-24T14:15:18;24.00;69.50
33841;DHT22;20142;28.494;-16.312;2023-04-24T14:20:20;25.00;68.40
33841;DHT22;20142;28.494;-16.312;2023-04-24T14:25:22;25.70;67.00
33841;DHT22;20142;28.494;-16.312;2023-04-24T14:30:23;26.10;66.10
33841;DHT22;20142;28.494;-16.312;2023-04-24T14:35:25;26.20;63.90
33841;DHT22;20142;28.494;-16.312;2023-04-24T14:40:27;27.00;64.90
33841;DHT22;20142;28.494;-16.312;2023-04-24T14:45:28;26.90;62.50
33841;DHT22;20142;28.494;-16.312;2023-04-24T14:50:30;26.40;62.10
33841;DHT22;20142;28.494;-16.312;2023-04-24T14:55:32;25.70;63.50
33841;DHT22;20142;28.494;-16.312;2023-04-24T15:00:36;26.00;62.60
33841;DHT22;20142;28.494;-16.312;2023-04-24T15:05:38;26.20;63.00
33841;DHT22;20142;28.494;-16.312;2023-04-24T15:10:40;26.90;61.50
33841;DHT22;20142;28.494;-16.312;2023-04-24T15:15:41;27.60;60.20
33841;DHT22;20142;28.494;-16.312;2023-04-24T15:20:43;29.20;59.50
33841;DHT22;20142;28.494;-16.312;2023-04-24T15:25:45;29.00;59.00
33841;DHT22;20142;28.494;-16.312;2023-04-24T15:30:47;29.20;56.50
33841;DHT22;20142;28.494;-16.312;2023-04-24T15:35:49;29.40;56.50
33841;DHT22;20142;28.494;-16.312;2023-04-24T15:40:51;29.90;55.80
33841;DHT22;20142;28.494;-16.312;2023-04-24T15:45:53;30.50;54.50
33841;DHT22;20142;28.494;-16.312;2023-04-24T15:50:55;30.80;52.70
33841;DHT22;20142;28.494;-16.312;2023-04-24T15:55:57;30.00;53.00
33841;DHT22;20142;28.494;-16.312;2023-04-24T16:00:59;29.80;53.50
33841;DHT22;20142;28.494;-16.312;2023-04-24T16:06:00;29.50;53.20
33841;DHT22;20142;28.494;-16.312;2023-04-24T16:11:02;30.00;54.00
33841;DHT22;20142;28.494;-16.312;2023-04-24T16:16:04;30.60;52.60
33841;DHT22;20142;28.494;-16.312;2023-04-24T16:21:06;30.30;53.00
33841;DHT22;20142;28.494;-16.312;2023-04-24T16:26:09;29.90;52.90
33841;DHT22;20142;28.494;-16.312;2023-04-24T16:31:11;29.70;53.40
33841;DHT22;20142;28.494;-16.312;2023-04-24T16:36:12;29.90;52.70
33841;DHT22;20142;28.494;-16.312;2023-04-24T16:41:15;30.90;52.80
33841;DHT22;20142;28.494;-16.312;2023-04-24T16:46:18;31.40;50.60
33841;DHT22;20142;28.494;-16.312;2023-04-24T16:51:20;28.50;52.90
33841;DHT22;20142;28.494;-16.312;2023-04-24T16:56:21;27.00;54.40
33841;DHT22;20142;28.494;-16.312;2023-04-24T17:01:23;26.20;55.90
33841;DHT22;20142;28.494;-16.312;2023-04-24T17:06:25;26.40;57.80
33841;DHT22;20142;28.494;-16.312;2023-04-24T17:11:27;25.30;58.10
33841;DHT22;20142;28.494;-16.312;2023-04-24T17:16:28;24.80;59.80
33841;DHT22;20142;28.494;-16.312;2023-04-24T17:21:30;25.00;61.00
33841;DHT22;20142;28.494;-16.312;2023-04-24T17:26:33;24.90;61.00
33841;DHT22;20142;28.494;-16.312;2023-04-24T17:31:34;25.90;60.60
33841;DHT22;20142;28.494;-16.312;2023-04-24T17:36:36;27.50;60.00
33841;DHT22;20142;28.494;-16.312;2023-04-24T17:41:38;28.40;57.60
33841;DHT22;20142;28.494;-16.312;2023-04-24T17:46:40;28.80;56.40
33841;DHT22;20142;28.494;-16.312;2023-04-24T17:51:42;27.30;56.90
33841;DHT22;20142;28.494;-16.312;2023-04-24T17:56:43;26.40;58.30
33841;DHT22;20142;28.494;-16.312;2023-04-24T18:01:45;26.20;59.30
33841;DHT22;20142;28.494;-16.312;2023-04-24T18:06:47;26.00;60.30
33841;DHT22;20142;28.494;-16.312;2023-04-24T18:11:49;25.50;60.50
33841;DHT22;20142;28.494;-16.312;2023-04-24T18:16:50;26.30;59.80
33841;DHT22;20142;28.494;-16.312;2023-04-24T18:21:52;26.70;58.60
33841;DHT22;20142;28.494;-16.312;2023-04-24T18:26:54;25.70;59.20
33841;DHT22;20142;28.494;-16.312;2023-04-24T18:31:55;24.30;60.80
33841;DHT22;20142;28.494;-16.312;2023-04-24T18:36:57;24.50;62.10
33841;DHT22;20142;28.494;-16.312;2023-04-24T18:41:59;25.60;61.50
33841;DHT22;20142;28.494;-16.312;2023-04-24T18:47:01;25.00;60.20
33841;DHT22;20142;28.494;-16.312;2023-04-24T18:52:04;24.20;61.40
33841;DHT22;20142;28.494;-16.312;2023-04-24T18:57:06;22.90;63.60
33841;DHT22;20142;28.494;-16.312;2023-04-24T19:02:08;22.00;64.60
33841;DHT22;20142;28.494;-16.312;2023-04-24T19:07:10;21.50;66.60
33841;DHT22;20142;28.494;-16.312;2023-04-24T19:12:12;20.80;67.90
33841;DHT22;20142;28.494;-16.312;2023-04-24T19:17:14;20.40;69.50
33841;DHT22;20142;28.494;-16.312;2023-04-24T19:22:22;20.10;69.50
33841;DHT22;20142;28.494;-16.312;2023-04-24T19:27:24;19.90;70.20
33841;DHT22;20142;28.494;-16.312;2023-04-24T19:32:26;19.50;71.80
33841;DHT22;20142;28.494;-16.312;2023-04-24T19:37:28;19.30;73.10
33841;DHT22;20142;28.494;-16.312;2023-04-24T19:42:32;19.00;73.60
33841;DHT22;20142;28.494;-16.312;2023-04-24T19:47:33;18.70;74.00
33841;DHT22;20142;28.494;-16.312;2023-04-24T19:52:35;18.70;74.30
33841;DHT22;20142;28.494;-16.312;2023-04-24T19:57:37;18.60;76.10
33841;DHT22;20142;28.494;-16.312;2023-04-24T20:02:39;18.30;76.50
33841;DHT22;20142;28.494;-16.312;2023-04-24T20:07:40;18.40;76.20
33841;DHT22;20142;28.494;-16.312;2023-04-24T20:12:42;18.40;76.60
33841;DHT22;20142;28.494;-16.312;2023-04-24T20:17:43;18.30;77.00
33841;DHT22;20142;28.494;-16.312;2023-04-24T20:22:45;18.10;77.60
33841;DHT22;20142;28.494;-16.312;2023-04-24T20:27:47;18.10;78.50
33841;DHT22;20142;28.494;-16.312;2023-04-24T20:32:48;18.00;78.10
33841;DHT22;20142;28.494;-16.312;2023-04-24T20:37:50;18.10;78.50
33841;DHT22;20142;28.494;-16.312;2023-04-24T20:42:53;18.10;78.50
33841;DHT22;20142;28.494;-16.312;2023-04-24T20:47:56;18.10;79.10
33841;DHT22;20142;28.494;-16.312;2023-04-24T20:52:58;18.00;79.10
33841;DHT22;20142;28.494;-16.312;2023-04-24T20:58:00;18.00;79.60
33841;DHT22;20142;28.494;-16.312;2023-04-24T21:03:02;17.90;80.20
33841;DHT22;20142;28.494;-16.312;2023-04-24T21:08:04;17.90;80.20
33841;DHT22;20142;28.494;-16.312;2023-04-24T21:13:06;17.90;80.20
33841;DHT22;20142;28.494;-16.312;2023-04-24T21:18:08;17.80;80.40
33841;DHT22;20142;28.494;-16.312;2023-04-24T21:23:09;17.80;80.80
33841;DHT22;20142;28.494;-16.312;2023-04-24T21:28:11;17.80;80.60
33841;DHT22;20142;28.494;-16.312;2023-04-24T21:33:13;17.70;80.90
33841;DHT22;20142;28.494;-16.312;2023-04-24T21:38:14;17.60;81.10
33841;DHT22;20142;28.494;-16.312;2023-04-24T21:43:20;17.60;81.60
33841;DHT22;20142;28.494;-16.312;2023-04-24T21:48:22;17.70;81.60
33841;DHT22;20142;28.494;-16.312;2023-04-24T21:53:23;17.80;81.50
33841;DHT22;20142;28.494;-16.312;2023-04-24T21:58:25;17.70;81.60
33841;DHT22;20142;28.494;-16.312;2023-04-24T22:03:27;17.60;81.60
33841;DHT22;20142;28.494;-16.312;2023-04-24T22:08:30;17.60;82.00
33841;DHT22;20142;28.494;-16.312;2023-04-24T22:13:31;17.60;82.00
33841;DHT22;20142;28.494;-16.312;2023-04-24T22:18:33;17.60;82.10
33841;DHT22;20142;28.494;-16.312;2023-04-24T22:23:35;17.50;82.20
33841;DHT22;20142;28.494;-16.312;2023-04-24T22:28:37;17.50;82.50
33841;DHT22;20142;28.494;-16.312;2023-04-24T22:33:38;17.40;82.30
33841;DHT22;20142;28.494;-16.312;2023-04-24T22:38:40;17.40;82.60
33841;DHT22;20142;28.494;-16.312;2023-04-24T22:43:42;17.40;82.70
33841;DHT22;20142;28.494;-16.312;2023-04-24T22:48:44;17.30;82.70
33841;DHT22;20142;28.494;-16.312;2023-04-24T22:53:48;17.40;82.90
33841;DHT22;20142;28.494;-16.312;2023-04-24T22:58:50;17.50;83.00
33841;DHT22;20142;28.494;-16.312;2023-04-24T23:03:52;17.40;83.00
33841;DHT22;20142;28.494;-16.312;2023-04-24T23:08:54;17.40;83.30
33841;DHT22;20142;28.494;-16.312;2023-04-24T23:13:55;17.40;83.50
33841;DHT22;20142;28.494;-16.312;2023-04-24T23:18:57;17.50;83.30
33841;DHT22;20142;28.494;-16.312;2023-04-24T23:23:59;17.30;83.40
33841;DHT22;20142;28.494;-16.312;2023-04-24T23:29:01;17.40;83.40
33841;DHT22;20142;28.494;-16.312;2023-04-24T23:34:03;17.20;83.60
33841;DHT22;20142;28.494;-16.312;2023-04-24T23:39:05;17.10;83.80
33841;DHT22;20142;28.494;-16.312;2023-04-24T23:44:06;17.10;84.00
33841;DHT22;20142;28.494;-16.312;2023-04-24T23:49:08;17.10;84.10
33841;DHT22;20142;28.494;-16.312;2023-04-24T23:54:10;16.90;84.40
33841;DHT22;20142;28.494;-16.312;2023-04-24T23:59:13;17.00;84.40
